createdAt,value
2022-12-23T00:05:08.596Z,62.16
2022-12-23T00:10:32.728Z,61.83
2022-12-23T00:16:14.897Z,61.53
2022-12-23T00:21:56.468Z,61.10
2022-12-23T00:27:20.203Z,60.59
2022-12-23T00:32:43.754Z,59.71
2022-12-23T00:38:07.860Z,53.41
2022-12-23T00:43:49.879Z,50.85
2022-12-23T00:49:46.249Z,52.65
2022-12-23T00:55:27.156Z,55.09
2022-12-23T01:01:25.407Z,58.25
2022-12-23T01:07:06.198Z,71.33
2022-12-23T01:12:30.907Z,72.44
2022-12-23T01:18:12.910Z,68.14
2022-12-23T01:23:37.253Z,64.09
2022-12-23T01:29:18.243Z,61.22
2022-12-23T01:34:59.548Z,59.97
2022-12-23T01:40:23.234Z,53.47
2022-12-23T01:45:47.607Z,51.09
2022-12-23T01:51:17.479Z,52.74
2022-12-23T01:56:41.479Z,55.47
2022-12-23T02:02:40.483Z,57.73
2022-12-23T02:08:39.342Z,70.76
2022-12-23T02:14:43.857Z,72.08
2022-12-23T02:20:43.891Z,67.77
2022-12-23T02:26:40.920Z,64.53
2022-12-23T02:32:25.256Z,62.23
2022-12-23T02:38:19.065Z,60.58
2022-12-23T02:44:19.001Z,53.76
2022-12-23T02:50:00.793Z,51.78
2022-12-23T02:55:26.205Z,54.09
2022-12-23T03:00:53.290Z,56.51
2022-12-23T03:06:19.277Z,58.78
2022-12-23T03:11:52.346Z,70.60
2022-12-23T03:17:52.347Z,73.37
2022-12-23T03:23:55.786Z,69.51
2022-12-23T03:29:41.140Z,65.97
2022-12-23T03:35:25.076Z,63.14
2022-12-23T03:41:11.057Z,61.29
2022-12-23T03:46:36.303Z,59.73
2022-12-23T03:52:21.434Z,53.10
2022-12-23T03:58:14.135Z,50.27
2022-12-23T04:03:39.238Z,52.87
2022-12-23T04:09:22.306Z,55.72
2022-12-23T04:15:09.025Z,58.90
2022-12-23T04:20:36.554Z,70.82
2022-12-23T04:25:59.961Z,74.22
2022-12-23T04:31:24.063Z,71.13
2022-12-23T04:36:48.366Z,68.41
2022-12-23T04:42:29.788Z,65.75
2022-12-23T04:48:10.929Z,64.06
2022-12-23T04:53:34.747Z,63.36
2022-12-23T04:59:16.056Z,62.60
2022-12-23T05:04:39.771Z,62.16
2022-12-23T05:10:04.251Z,61.69
2022-12-23T05:15:28.589Z,61.65
2022-12-23T05:20:52.408Z,61.65
2022-12-23T05:26:16.168Z,62.05
2022-12-23T05:31:39.753Z,61.92
2022-12-23T05:37:20.970Z,62.04
2022-12-23T05:43:02.506Z,62.36
2022-12-23T05:48:27.044Z,62.93
2022-12-23T05:53:50.776Z,63.76
2022-12-23T05:59:16.128Z,64.34
2022-12-23T06:04:57.567Z,64.48
2022-12-23T06:10:38.593Z,64.48
2022-12-23T06:16:20.228Z,64.18
2022-12-23T06:22:02.190Z,64.19
2022-12-23T06:27:25.835Z,64.28
2022-12-23T06:32:49.719Z,64.21
2022-12-23T06:38:14.078Z,64.38
2022-12-23T06:43:55.748Z,64.25
2022-12-23T06:49:37.592Z,64.30
2022-12-23T06:55:21.458Z,64.33
2022-12-23T07:01:02.653Z,64.67
2022-12-23T07:06:27.638Z,65.04
2022-12-23T07:11:53.559Z,64.84
2022-12-23T07:17:17.968Z,64.53
2022-12-23T07:22:43.956Z,63.98
2022-12-23T07:28:08.178Z,63.69
2022-12-23T07:33:35.850Z,63.62
2022-12-23T07:39:00.946Z,63.84
2022-12-23T07:44:43.853Z,63.96
2022-12-23T07:50:27.667Z,64.17
2022-12-23T07:56:09.573Z,64.22
2022-12-23T08:01:34.058Z,64.19
2022-12-23T08:06:58.933Z,64.43
2022-12-23T08:12:23.835Z,64.54
2022-12-23T08:17:47.821Z,64.57
2022-12-23T08:23:29.942Z,64.56
2022-12-23T08:29:11.801Z,64.45
2022-12-23T08:34:36.539Z,64.66
2022-12-23T08:40:18.378Z,64.96
2022-12-23T08:45:42.393Z,65.26
2022-12-23T08:51:07.618Z,65.59
2022-12-23T08:56:34.209Z,65.43
2022-12-23T09:02:16.563Z,65.28
2022-12-23T09:07:43.658Z,65.28
2022-12-23T09:13:09.013Z,65.49
2022-12-23T09:18:34.660Z,65.61
2022-12-23T09:24:01.387Z,66.10
2022-12-23T09:29:44.469Z,66.23
2022-12-23T09:35:26.409Z,66.49
2022-12-23T09:41:12.368Z,67.00
2022-12-23T09:46:36.595Z,67.14
2022-12-23T09:52:01.385Z,67.63
2022-12-23T09:57:31.328Z,67.80
2022-12-23T10:02:58.644Z,67.72
2022-12-23T10:08:34.136Z,67.66
2022-12-23T10:13:59.976Z,67.72
2022-12-23T10:19:26.981Z,67.86
2022-12-23T10:24:50.662Z,68.07
2022-12-23T10:30:57.430Z,68.31
2022-12-23T10:36:43.090Z,68.32
2022-12-23T10:42:25.905Z,68.18
2022-12-23T10:48:22.364Z,68.06
2022-12-23T10:53:54.412Z,68.03
2022-12-23T10:59:22.429Z,68.47
2022-12-23T11:04:50.045Z,68.66
2022-12-23T11:10:33.600Z,68.53
2022-12-23T11:16:16.384Z,68.15
2022-12-23T11:21:41.445Z,68.24
2022-12-23T11:27:08.672Z,68.29
2022-12-23T11:32:32.453Z,68.17
2022-12-23T11:37:56.292Z,67.82
2022-12-23T11:43:38.006Z,67.66
2022-12-23T11:49:20.593Z,67.29
2022-12-23T11:54:49.830Z,67.25
2022-12-23T12:00:38.841Z,67.28
2022-12-23T12:06:20.096Z,67.00
2022-12-23T12:11:48.513Z,66.82
2022-12-23T12:17:42.862Z,66.88
2022-12-23T12:23:42.068Z,66.62
2022-12-23T12:29:28.795Z,66.66
2022-12-23T12:35:13.579Z,66.69
2022-12-23T12:40:38.486Z,66.92
2022-12-23T12:46:21.146Z,67.50
2022-12-23T12:51:46.836Z,67.63
2022-12-23T12:57:28.768Z,67.70
2022-12-23T13:03:11.036Z,67.75
2022-12-23T13:09:13.411Z,67.94
2022-12-23T13:14:46.855Z,67.66
2022-12-23T13:20:22.755Z,67.45
2022-12-23T13:25:47.316Z,67.40
2022-12-23T13:31:38.020Z,67.04
2022-12-23T13:37:38.022Z,66.82
2022-12-23T13:43:23.738Z,66.78
2022-12-23T13:48:54.468Z,66.72
2022-12-23T13:55:14.504Z,66.59
2022-12-23T14:01:21.147Z,66.54
2022-12-23T14:07:09.032Z,66.83
2022-12-23T14:12:51.293Z,66.74
2022-12-23T14:18:32.184Z,66.71
2022-12-23T14:24:22.705Z,66.63
2022-12-23T14:29:52.561Z,66.25
2022-12-23T14:35:42.013Z,65.71
2022-12-23T14:41:25.318Z,65.48
2022-12-23T14:46:49.697Z,65.36
2022-12-23T14:52:44.470Z,65.06
2022-12-23T14:58:28.380Z,64.90
2022-12-23T15:03:59.251Z,65.07
2022-12-23T15:10:02.326Z,65.22
2022-12-23T15:15:57.419Z,65.35
2022-12-23T15:21:46.809Z,65.57
2022-12-23T15:27:30.400Z,65.78
2022-12-23T15:32:56.371Z,65.73
2022-12-23T15:38:37.792Z,64.55
2022-12-23T15:44:23.712Z,64.34
2022-12-23T15:49:47.534Z,64.34
2022-12-23T15:55:30.374Z,63.77
2022-12-23T16:00:54.011Z,63.73
2022-12-23T16:06:36.410Z,63.24
2022-12-23T16:12:27.736Z,62.39
2022-12-23T16:17:51.761Z,61.89
2022-12-23T16:23:33.461Z,61.71
2022-12-23T16:29:15.255Z,61.77
2022-12-23T16:34:38.617Z,61.57
2022-12-23T16:40:03.645Z,61.41
2022-12-23T16:45:27.475Z,61.41
2022-12-23T16:51:15.044Z,61.41
2022-12-23T16:56:56.805Z,61.40
2022-12-23T17:02:38.619Z,61.17
2022-12-23T17:08:19.702Z,60.90
2022-12-23T17:13:43.332Z,60.64
2022-12-23T17:19:07.173Z,60.39
2022-12-23T17:24:31.186Z,60.10
2022-12-23T17:30:16.383Z,58.25
2022-12-23T17:35:58.042Z,52.12
2022-12-23T17:41:40.229Z,52.98
2022-12-23T17:47:22.581Z,55.40
2022-12-23T17:52:46.971Z,58.10
2022-12-23T17:58:28.669Z,69.67
2022-12-23T18:03:52.712Z,71.42
2022-12-23T18:09:34.461Z,68.41
2022-12-23T18:14:58.116Z,65.83
2022-12-23T18:20:22.535Z,63.67
2022-12-23T18:25:47.009Z,61.93
2022-12-23T18:31:15.519Z,60.62
2022-12-23T18:36:39.614Z,54.66
2022-12-23T18:42:04.076Z,52.30
2022-12-23T18:47:28.262Z,54.14
2022-12-23T18:53:09.654Z,56.30
2022-12-23T18:58:50.885Z,58.77
2022-12-23T19:04:32.146Z,71.25
2022-12-23T19:09:56.641Z,72.45
2022-12-23T19:15:38.322Z,68.58
2022-12-23T19:21:19.814Z,65.74
2022-12-23T19:26:43.363Z,63.40
2022-12-23T19:32:07.318Z,61.88
2022-12-23T19:37:31.343Z,60.58
2022-12-23T19:43:12.587Z,54.30
2022-12-23T19:48:54.802Z,52.73
2022-12-23T19:54:35.890Z,54.67
2022-12-23T20:00:00.285Z,57.39
2022-12-23T20:05:41.532Z,69.01
2022-12-23T20:11:26.509Z,70.71
2022-12-23T20:16:50.496Z,67.77
2022-12-23T20:22:32.415Z,65.16
2022-12-23T20:27:56.677Z,63.26
2022-12-23T20:33:38.508Z,62.00
2022-12-23T20:39:20.031Z,60.72
2022-12-23T20:44:43.893Z,60.03
2022-12-23T20:50:08.181Z,54.45
2022-12-23T20:55:33.421Z,52.08
2022-12-23T21:01:14.802Z,53.85
2022-12-23T21:06:56.003Z,56.43
2022-12-23T21:12:36.894Z,59.11
2022-12-23T21:18:00.593Z,71.09
2022-12-23T21:23:42.466Z,74.10
2022-12-23T21:29:23.993Z,70.42
2022-12-23T21:34:48.450Z,67.30
2022-12-23T21:40:12.884Z,64.92
2022-12-23T21:45:36.464Z,63.09
2022-12-23T21:51:17.525Z,61.66
2022-12-23T21:57:00.203Z,60.48
2022-12-23T22:02:46.278Z,54.00
2022-12-23T22:08:27.572Z,52.14
2022-12-23T22:13:52.401Z,54.53
2022-12-23T22:19:33.904Z,57.17
2022-12-23T22:24:57.645Z,68.48
2022-12-23T22:30:38.825Z,71.65
2022-12-23T22:36:03.427Z,68.59
2022-12-23T22:41:44.577Z,66.17
2022-12-23T22:47:26.044Z,64.01
2022-12-23T22:52:49.928Z,62.67
2022-12-23T22:58:15.251Z,61.14
2022-12-23T23:03:39.365Z,60.11
2022-12-23T23:09:22.013Z,55.08
2022-12-23T23:15:03.229Z,52.69
2022-12-23T23:20:44.231Z,54.67
2022-12-23T23:26:27.669Z,57.53
2022-12-23T23:31:51.733Z,69.17
2022-12-23T23:37:16.083Z,72.04
2022-12-23T23:42:40.443Z,68.99
2022-12-23T23:48:22.476Z,66.47
2022-12-23T23:54:04.444Z,64.81
2022-12-23T23:59:45.683Z,63.60
